Terminal Aerodrome Forecast
Issued by NWS

Home | Current Version | Previous Version | Graphics & Text | Print | Product List | Glossary On
Versions: 1 2 3 4 5 6 7 8 9 10 11 12 13 14 15 16 17 18 19 20 21 22 23 24
000
FTUS43 KPAH 281720
TAFCGI
TAF
KCGI 281720Z 2818/2918 15007KT P6SM SCT020 BKN035
      TEMPO 2818/2822 BKN020
     FM290100 15004KT P6SM SCT040 BKN120
     FM291500 19008KT P6SM VCTS BKN030CB=

USA.gov is the U.S. government's official web portal to all federal, state and local government web resources and services.